createdAt,value
2019-05-22T00:02:00.205Z,8.83
2019-05-22T00:04:47.989Z,9.27
2019-05-22T00:07:16.156Z,8.87
2019-05-22T00:09:49.660Z,8.23
2019-05-22T00:12:20.529Z,8.20
2019-05-22T00:14:50.076Z,8.40
2019-05-22T00:17:20.308Z,10.07
2019-05-22T00:19:49.347Z,8.87
2019-05-22T00:22:24.602Z,9.00
2019-05-22T00:24:54.761Z,9.93
2019-05-22T00:27:23.059Z,8.57
2019-05-22T00:29:53.273Z,8.90
2019-05-22T00:32:22.515Z,8.57
2019-05-22T00:34:50.568Z,8.80
2019-05-22T00:37:18.578Z,8.20
2019-05-22T00:39:47.849Z,7.97
2019-05-22T00:42:16.000Z,8.13
2019-05-22T00:44:44.205Z,8.43
2019-05-22T00:47:14.022Z,8.07
2019-05-22T00:49:43.848Z,8.23
2019-05-22T00:52:29.958Z,8.57
2019-05-22T00:55:05.696Z,7.70
2019-05-22T00:57:39.961Z,8.07
2019-05-22T01:00:24.190Z,8.57
2019-05-22T01:02:54.259Z,8.00
2019-05-22T01:05:22.558Z,7.83
2019-05-22T01:07:52.650Z,7.60
2019-05-22T01:10:23.297Z,7.53
2019-05-22T01:12:55.241Z,7.50
2019-05-22T01:15:24.722Z,8.17
2019-05-22T01:17:54.113Z,7.50
2019-05-22T01:20:25.325Z,8.10
2019-05-22T01:22:57.577Z,7.63
2019-05-22T01:25:27.246Z,7.70
2019-05-22T01:27:57.588Z,7.53
2019-05-22T01:30:36.574Z,8.03
2019-05-22T01:33:09.919Z,7.50
2019-05-22T01:35:39.465Z,8.33
2019-05-22T01:38:09.869Z,7.80
2019-05-22T01:40:42.120Z,7.67
2019-05-22T01:43:11.822Z,7.50
2019-05-22T01:45:39.916Z,8.20
2019-05-22T01:48:11.609Z,7.40
2019-05-22T01:50:43.265Z,7.37
2019-05-22T01:53:15.554Z,7.80
2019-05-22T01:55:45.568Z,7.80
2019-05-22T01:58:15.333Z,7.33
2019-05-22T02:00:43.510Z,7.80
2019-05-22T02:03:11.843Z,7.80
2019-05-22T02:05:40.141Z,7.60
2019-05-22T02:08:08.947Z,7.90
2019-05-22T02:10:39.880Z,7.80
2019-05-22T02:13:09.539Z,7.80
2019-05-22T02:15:37.620Z,8.07
2019-05-22T02:18:07.535Z,7.87
2019-05-22T02:20:36.414Z,8.27
2019-05-22T02:23:05.861Z,8.10
2019-05-22T02:25:34.274Z,7.90
2019-05-22T02:28:02.327Z,7.57
2019-05-22T02:30:32.766Z,7.73
2019-05-22T02:33:01.561Z,7.50
2019-05-22T02:35:30.799Z,7.30
2019-05-22T02:37:59.014Z,7.70
2019-05-22T02:40:29.375Z,8.10
2019-05-22T02:42:58.311Z,8.23
2019-05-22T02:45:26.429Z,8.00
2019-05-22T02:47:55.777Z,7.83
2019-05-22T02:50:23.775Z,7.63
2019-05-22T02:52:51.784Z,7.30
2019-05-22T02:55:19.944Z,7.40
2019-05-22T02:57:48.076Z,7.83
2019-05-22T03:00:16.800Z,7.30
2019-05-22T03:02:49.672Z,7.87
2019-05-22T03:05:17.630Z,7.70
2019-05-22T03:07:46.954Z,7.30
2019-05-22T03:10:16.068Z,7.73
2019-05-22T03:12:43.992Z,7.43
2019-05-22T03:15:14.588Z,8.10
2019-05-22T03:17:45.270Z,8.13
2019-05-22T03:20:16.046Z,8.30
2019-05-22T03:22:56.953Z,8.10
2019-05-22T03:25:25.220Z,8.17
2019-05-22T03:27:53.809Z,7.97
2019-05-22T03:30:24.300Z,8.70
2019-05-22T03:32:53.641Z,8.50
2019-05-22T03:35:22.364Z,8.70
2019-05-22T03:37:50.614Z,8.40
2019-05-22T03:40:19.196Z,8.23
2019-05-22T03:42:47.280Z,8.00
2019-05-22T03:45:15.468Z,8.97
2019-05-22T03:47:43.823Z,7.50
2019-05-22T03:50:13.096Z,7.40
2019-05-22T03:52:41.397Z,7.50
2019-05-22T03:55:11.401Z,8.03
2019-05-22T03:57:39.590Z,8.07
2019-05-22T04:00:08.500Z,7.87
2019-05-22T04:02:36.528Z,8.50
2019-05-22T04:05:04.727Z,7.87
2019-05-22T04:07:33.597Z,7.73
2019-05-22T04:10:03.020Z,8.33
2019-05-22T04:12:30.991Z,7.40
2019-05-22T04:14:59.458Z,7.40
2019-05-22T04:17:27.822Z,7.77
2019-05-22T04:19:56.022Z,7.50
2019-05-22T04:22:24.381Z,8.70
2019-05-22T04:24:52.366Z,7.30
2019-05-22T04:27:21.333Z,8.03
2019-05-22T04:29:49.827Z,7.43
2019-05-22T04:32:29.289Z,7.53
2019-05-22T04:34:57.743Z,6.83
2019-05-22T04:37:25.725Z,6.87
2019-05-22T04:39:55.943Z,7.10
2019-05-22T04:42:26.996Z,6.93
2019-05-22T04:45:14.360Z,7.53
2019-05-22T04:47:44.734Z,6.23
2019-05-22T04:50:12.807Z,6.70
2019-05-22T04:52:41.594Z,6.77
2019-05-22T04:55:11.223Z,7.10
2019-05-22T04:57:39.166Z,6.30
2019-05-22T05:00:08.382Z,9.20
2019-05-22T05:02:36.345Z,7.07
2019-05-22T05:05:05.187Z,6.97
2019-05-22T05:07:33.208Z,7.13
2019-05-22T05:10:01.178Z,7.60
2019-05-22T05:12:29.764Z,7.10
2019-05-22T05:14:58.558Z,7.30
2019-05-22T05:17:26.602Z,7.30
2019-05-22T05:19:54.474Z,9.63
2019-05-22T05:22:27.946Z,7.40
2019-05-22T05:24:55.997Z,7.80
2019-05-22T05:27:24.070Z,7.20
2019-05-22T05:29:51.982Z,7.83
2019-05-22T05:32:20.161Z,7.90
2019-05-22T05:34:54.052Z,9.10
2019-05-22T05:37:23.884Z,8.50
2019-05-22T05:40:11.167Z,8.00
2019-05-22T05:42:39.265Z,7.87
2019-05-22T05:45:09.077Z,7.80
2019-05-22T05:47:37.267Z,7.97
2019-05-22T05:50:08.945Z,8.00
2019-05-22T05:52:37.930Z,9.10
2019-05-22T05:55:06.260Z,8.47
2019-05-22T05:58:03.367Z,8.30
2019-05-22T06:00:35.348Z,8.17
2019-05-22T06:03:05.493Z,7.80
2019-05-22T06:05:34.587Z,8.57
2019-05-22T06:08:02.816Z,8.90
2019-05-22T06:10:59.739Z,8.20
2019-05-22T06:13:28.310Z,9.10
2019-05-22T06:16:24.716Z,9.90
2019-05-22T06:18:53.077Z,8.67
2019-05-22T06:21:22.020Z,8.50
2019-05-22T06:24:08.009Z,8.23
2019-05-22T06:26:49.828Z,9.13
2019-05-22T06:29:19.374Z,10.37
2019-05-22T06:32:16.022Z,8.17
2019-05-22T06:34:44.296Z,8.63
2019-05-22T06:37:17.925Z,8.63
2019-05-22T06:39:45.993Z,9.93
2019-05-22T06:42:13.877Z,8.80
2019-05-22T06:44:42.378Z,10.77
2019-05-22T06:47:13.582Z,8.10
2019-05-22T06:49:54.779Z,9.37
2019-05-22T06:52:23.314Z,8.03
2019-05-22T06:54:51.938Z,10.33
2019-05-22T06:57:25.126Z,8.83
2019-05-22T07:00:11.397Z,8.60
2019-05-22T07:02:23.630Z,10.40
2019-05-22T07:04:51.932Z,7.77
2019-05-22T07:07:21.833Z,9.80
2019-05-22T07:09:50.451Z,8.03
2019-05-22T07:12:24.211Z,8.87
2019-05-22T07:15:20.571Z,8.70
2019-05-22T07:17:50.729Z,8.20
2019-05-22T07:20:19.447Z,6.90
2019-05-22T07:22:47.552Z,8.70
2019-05-22T07:25:15.603Z,8.33
2019-05-22T07:27:44.104Z,7.47
2019-05-22T07:30:12.301Z,6.97
2019-05-22T07:32:40.842Z,6.20
2019-05-22T07:35:08.872Z,5.80
2019-05-22T07:37:39.825Z,6.83
2019-05-22T07:40:08.165Z,7.17
2019-05-22T07:42:36.363Z,7.23
2019-05-22T07:45:05.674Z,6.40
2019-05-22T07:47:34.598Z,4.97
2019-05-22T07:50:03.825Z,5.80
2019-05-22T07:52:31.873Z,6.80
2019-05-22T07:55:00.320Z,6.10
2019-05-22T07:57:29.845Z,5.63
2019-05-22T07:59:57.937Z,5.93
2019-05-22T08:02:27.368Z,7.17
2019-05-22T08:04:55.934Z,6.63
2019-05-22T08:07:26.824Z,5.87
2019-05-22T08:09:54.989Z,5.40
2019-05-22T08:12:24.644Z,6.30
2019-05-22T08:14:52.745Z,5.17
2019-05-22T08:17:20.808Z,7.40
2019-05-22T08:19:48.764Z,7.20
2019-05-22T08:22:17.405Z,5.67
2019-05-22T08:24:45.402Z,6.47
2019-05-22T08:27:14.201Z,6.10
2019-05-22T08:29:42.258Z,7.00
2019-05-22T08:32:10.549Z,5.83
2019-05-22T08:34:40.793Z,4.60
2019-05-22T08:37:10.220Z,5.67
2019-05-22T08:39:39.793Z,6.67
2019-05-22T08:42:09.208Z,6.17
2019-05-22T08:44:38.265Z,5.47
2019-05-22T08:47:07.912Z,4.93
2019-05-22T08:49:35.961Z,6.40
2019-05-22T08:52:04.509Z,6.80
2019-05-22T08:54:32.826Z,6.73
2019-05-22T08:57:01.730Z,5.50
2019-05-22T08:59:29.776Z,5.50
2019-05-22T09:01:57.915Z,7.90
2019-05-22T09:04:25.900Z,6.17
2019-05-22T09:06:57.055Z,6.63
2019-05-22T09:09:25.892Z,6.20
2019-05-22T09:11:53.914Z,7.20
2019-05-22T09:14:21.963Z,6.30
2019-05-22T09:16:50.015Z,7.47
2019-05-22T09:19:18.045Z,5.90
2019-05-22T09:21:47.172Z,5.53
2019-05-22T09:24:17.456Z,6.13
2019-05-22T09:26:45.789Z,6.53
2019-05-22T09:29:13.844Z,6.93
2019-05-22T09:31:41.933Z,7.10
2019-05-22T09:34:10.245Z,6.90
2019-05-22T09:36:38.580Z,6.63
2019-05-22T09:39:07.605Z,6.57
2019-05-22T09:41:36.647Z,7.20
2019-05-22T09:44:04.764Z,6.67
2019-05-22T09:46:32.834Z,7.03
2019-05-22T09:49:01.733Z,6.60
2019-05-22T09:51:29.837Z,6.10
2019-05-22T09:53:57.876Z,5.70
2019-05-22T09:56:26.091Z,7.23
2019-05-22T09:58:54.428Z,6.20
2019-05-22T10:01:22.432Z,5.90
2019-05-22T10:03:50.507Z,6.00
2019-05-22T10:06:21.530Z,6.73
2019-05-22T10:08:48.401Z,6.07
2019-05-22T10:11:16.551Z,6.70
2019-05-22T10:13:44.527Z,5.40
2019-05-22T10:16:12.506Z,6.73
2019-05-22T10:18:40.645Z,5.30
2019-05-22T10:21:09.331Z,4.70
2019-05-22T10:23:37.301Z,5.10
2019-05-22T10:26:05.604Z,5.90
2019-05-22T10:28:34.066Z,5.97
2019-05-22T10:31:02.348Z,5.80
2019-05-22T10:33:30.635Z,5.67
2019-05-22T10:35:58.614Z,5.80
2019-05-22T10:38:27.078Z,5.70
2019-05-22T10:40:58.939Z,6.10
2019-05-22T10:43:24.757Z,6.10
2019-05-22T10:45:52.829Z,6.53
2019-05-22T10:48:20.789Z,6.00
2019-05-22T10:50:48.769Z,6.30
2019-05-22T10:53:32.386Z,6.47
2019-05-22T10:55:46.755Z,6.17
2019-05-22T10:58:14.959Z,6.27
2019-05-22T11:00:42.903Z,6.43
2019-05-22T11:03:11.841Z,6.33
2019-05-22T11:05:39.787Z,6.60
2019-05-22T11:08:07.962Z,6.50
2019-05-22T11:10:36.712Z,6.50
2019-05-22T11:13:04.862Z,6.33
2019-05-22T11:15:32.856Z,6.10
2019-05-22T11:18:01.033Z,6.57
2019-05-22T11:20:29.977Z,7.43
2019-05-22T11:22:58.091Z,6.73
2019-05-22T11:25:26.062Z,6.13
2019-05-22T11:27:54.621Z,7.00
2019-05-22T11:30:23.269Z,6.33
2019-05-22T11:32:51.419Z,7.73
2019-05-22T11:35:19.864Z,7.30
2019-05-22T11:37:47.971Z,6.97
2019-05-22T11:40:17.216Z,5.90
2019-05-22T11:42:46.472Z,6.23
2019-05-22T11:45:15.705Z,6.47
2019-05-22T11:47:43.635Z,6.13
2019-05-22T11:50:12.337Z,7.40
2019-05-22T11:52:41.885Z,7.00
2019-05-22T11:55:10.882Z,6.53
2019-05-22T11:57:39.110Z,5.67
2019-05-22T12:00:09.345Z,7.00
2019-05-22T12:02:38.799Z,6.60
2019-05-22T12:05:07.374Z,6.67
2019-05-22T12:07:35.264Z,7.30
2019-05-22T12:10:03.219Z,7.10
2019-05-22T12:12:35.141Z,6.70
2019-05-22T12:15:01.554Z,6.53
2019-05-22T12:17:38.013Z,7.07
2019-05-22T12:19:59.704Z,7.27
2019-05-22T12:22:27.677Z,7.30
2019-05-22T12:24:55.653Z,7.23
2019-05-22T12:27:24.633Z,6.53
2019-05-22T12:29:52.618Z,7.20
2019-05-22T12:32:20.782Z,6.80
2019-05-22T12:34:49.546Z,6.73
2019-05-22T12:37:17.869Z,7.73
2019-05-22T12:39:45.821Z,6.67
2019-05-22T12:42:15.324Z,7.13
2019-05-22T12:44:43.878Z,6.60
2019-05-22T12:47:12.398Z,8.47
2019-05-22T12:49:40.977Z,7.33
2019-05-22T12:52:09.673Z,6.73
2019-05-22T12:54:46.845Z,8.07
2019-05-22T12:57:07.994Z,7.07
2019-05-22T12:59:35.998Z,6.40
2019-05-22T13:02:05.283Z,7.40
2019-05-22T13:04:34.600Z,7.30
2019-05-22T13:07:03.584Z,6.83
2019-05-22T13:09:33.568Z,6.53
2019-05-22T13:12:04.098Z,6.70
2019-05-22T13:14:34.303Z,6.93
2019-05-22T13:17:06.923Z,6.23
2019-05-22T13:19:37.984Z,5.57
2019-05-22T13:22:13.945Z,6.30
2019-05-22T13:24:44.871Z,6.10
2019-05-22T13:27:15.349Z,5.93
2019-05-22T13:29:43.323Z,6.40
2019-05-22T13:32:12.875Z,6.37
2019-05-22T13:34:41.299Z,6.20
2019-05-22T13:37:10.166Z,6.13
2019-05-22T13:39:38.281Z,6.20
2019-05-22T13:42:07.158Z,5.77
2019-05-22T13:44:35.463Z,6.43
2019-05-22T13:47:04.170Z,6.13
2019-05-22T13:49:34.974Z,6.40
2019-05-22T13:52:03.586Z,6.43
2019-05-22T13:54:31.713Z,6.80
2019-05-22T13:57:01.790Z,6.30
2019-05-22T13:59:30.772Z,7.00
2019-05-22T14:01:58.878Z,6.60
2019-05-22T14:04:26.861Z,6.40
2019-05-22T14:06:55.336Z,6.33
2019-05-22T14:09:23.917Z,6.53
2019-05-22T14:11:52.388Z,6.17
2019-05-22T14:14:20.462Z,6.60
2019-05-22T14:16:49.508Z,6.40
2019-05-22T14:19:17.766Z,6.50
2019-05-22T14:21:51.202Z,6.60
2019-05-22T14:24:15.418Z,6.30
2019-05-22T14:26:43.362Z,6.60
2019-05-22T14:29:11.371Z,6.93
2019-05-22T14:31:39.450Z,6.27
2019-05-22T14:34:07.972Z,6.77
2019-05-22T14:36:36.889Z,7.10
2019-05-22T14:39:06.621Z,6.67
2019-05-22T14:41:34.763Z,6.70
2019-05-22T14:44:02.965Z,6.27
2019-05-22T14:46:31.021Z,5.83
2019-05-22T14:48:59.096Z,6.07
2019-05-22T14:51:27.148Z,6.17
2019-05-22T14:53:56.219Z,6.50
2019-05-22T14:56:24.540Z,7.23
2019-05-22T14:58:53.949Z,6.43
2019-05-22T15:01:22.410Z,6.30
2019-05-22T15:03:51.606Z,6.40
2019-05-22T15:06:20.113Z,6.90
2019-05-22T15:08:48.183Z,7.20
2019-05-22T15:11:16.808Z,6.20
2019-05-22T15:13:45.015Z,6.40
2019-05-22T15:16:14.095Z,6.30
2019-05-22T15:18:42.095Z,7.50
2019-05-22T15:21:11.334Z,6.07
2019-05-22T15:23:39.561Z,6.40
2019-05-22T15:26:08.328Z,6.20
2019-05-22T15:28:36.730Z,6.57
2019-05-22T15:31:06.242Z,6.40
2019-05-22T15:33:34.697Z,6.40
2019-05-22T15:36:06.783Z,6.23
2019-05-22T15:38:36.835Z,6.60
2019-05-22T15:41:04.980Z,6.43
2019-05-22T15:43:33.061Z,6.10
2019-05-22T15:46:02.581Z,6.50
2019-05-22T15:48:31.768Z,6.37
2019-05-22T15:51:01.191Z,6.13
2019-05-22T15:53:30.876Z,6.40
2019-05-22T15:56:00.439Z,6.40
2019-05-22T15:58:29.637Z,6.57
2019-05-22T16:00:58.930Z,7.00
2019-05-22T16:03:28.778Z,6.80
2019-05-22T16:05:58.254Z,7.33
2019-05-22T16:08:26.757Z,6.77
2019-05-22T16:10:59.605Z,6.70
2019-05-22T16:13:26.896Z,6.50
2019-05-22T16:15:56.903Z,7.23
2019-05-22T16:18:27.358Z,6.53
2019-05-22T16:20:56.745Z,6.67
2019-05-22T16:23:25.232Z,6.77
2019-05-22T16:25:53.925Z,6.60
2019-05-22T16:28:23.222Z,6.80
2019-05-22T16:30:51.717Z,6.63
2019-05-22T16:33:20.386Z,7.00
2019-05-22T16:35:48.485Z,6.70
2019-05-22T16:38:16.569Z,6.60
2019-05-22T16:40:44.721Z,6.43
2019-05-22T16:43:13.173Z,6.63
2019-05-22T16:45:42.481Z,6.70
2019-05-22T16:48:27.633Z,6.70
2019-05-22T16:50:42.923Z,7.07
2019-05-22T16:53:11.747Z,7.07
2019-05-22T16:55:40.379Z,6.70
2019-05-22T16:58:08.608Z,6.70
2019-05-22T17:00:37.594Z,7.13
2019-05-22T17:03:06.025Z,7.00
2019-05-22T17:05:34.842Z,6.93
2019-05-22T17:08:03.865Z,6.90
2019-05-22T17:10:31.992Z,7.53
2019-05-22T17:13:00.001Z,7.63
2019-05-22T17:15:28.803Z,8.27
2019-05-22T17:17:57.155Z,9.27
2019-05-22T17:20:25.938Z,7.77
2019-05-22T17:22:53.924Z,7.13
2019-05-22T17:25:21.884Z,7.80
2019-05-22T17:27:50.144Z,7.00
2019-05-22T17:30:20.816Z,9.80
2019-05-22T17:32:48.933Z,7.53
2019-05-22T17:35:18.437Z,7.00
2019-05-22T17:37:46.535Z,8.60
2019-05-22T17:40:15.239Z,7.30
2019-05-22T17:42:44.841Z,9.97
2019-05-22T17:45:14.404Z,7.00
2019-05-22T17:47:42.788Z,7.20
2019-05-22T17:50:26.191Z,8.00
2019-05-22T17:52:44.088Z,7.20
2019-05-22T17:55:12.982Z,7.67
2019-05-22T17:57:41.237Z,6.97
2019-05-22T18:00:14.973Z,7.20
2019-05-22T18:02:45.534Z,7.50
2019-05-22T18:05:14.068Z,7.50
2019-05-22T18:07:42.032Z,7.70
2019-05-22T18:10:11.706Z,7.90
2019-05-22T18:12:41.928Z,8.87
2019-05-22T18:15:11.018Z,7.80
2019-05-22T18:17:39.121Z,8.10
2019-05-22T18:20:07.920Z,10.40
2019-05-22T18:22:36.213Z,8.63
2019-05-22T18:25:04.724Z,8.00
2019-05-22T18:27:32.847Z,8.30
2019-05-22T18:30:01.233Z,7.77
2019-05-22T18:32:31.526Z,8.50
2019-05-22T18:34:59.797Z,8.00
2019-05-22T18:37:28.017Z,8.30
2019-05-22T18:39:56.310Z,8.17
2019-05-22T18:42:24.559Z,8.57
2019-05-22T18:44:52.616Z,8.37
2019-05-22T18:47:20.656Z,9.00
2019-05-22T18:49:48.669Z,9.10
2019-05-22T18:52:16.887Z,8.77
2019-05-22T18:54:44.892Z,9.23
2019-05-22T18:57:12.880Z,9.23
2019-05-22T18:59:40.900Z,9.50
2019-05-22T19:02:09.297Z,8.50
2019-05-22T19:04:37.358Z,9.73
2019-05-22T19:07:05.361Z,9.20
2019-05-22T19:09:33.806Z,8.40
2019-05-22T19:12:01.701Z,8.77
2019-05-22T19:14:30.374Z,9.20
2019-05-22T19:16:58.654Z,8.90
2019-05-22T19:19:28.491Z,9.10
2019-05-22T19:21:56.391Z,8.73
2019-05-22T19:24:24.567Z,9.93
2019-05-22T19:26:52.765Z,8.77
2019-05-22T19:29:20.802Z,8.77
2019-05-22T19:31:48.965Z,8.90
2019-05-22T19:34:17.009Z,9.03
2019-05-22T19:36:45.949Z,8.07
2019-05-22T19:39:13.931Z,9.07
2019-05-22T19:41:42.262Z,8.97
2019-05-22T19:44:10.831Z,8.30
2019-05-22T19:46:40.078Z,10.90
2019-05-22T19:49:08.575Z,8.77
2019-05-22T19:51:37.174Z,8.07
2019-05-22T19:54:05.585Z,8.90
2019-05-22T19:56:34.912Z,9.17
2019-05-22T19:59:04.487Z,8.73
2019-05-22T20:01:33.357Z,9.70
2019-05-22T20:04:01.924Z,8.70
2019-05-22T20:06:30.782Z,9.53
2019-05-22T20:08:58.919Z,8.93
2019-05-22T20:11:27.024Z,8.70
2019-05-22T20:13:55.173Z,8.90
2019-05-22T20:16:23.162Z,10.03
2019-05-22T20:18:51.157Z,10.50
2019-05-22T20:21:19.494Z,8.60
2019-05-22T20:23:47.600Z,9.20
2019-05-22T20:26:15.933Z,8.60
2019-05-22T20:28:43.954Z,8.90
2019-05-22T20:31:11.970Z,8.80
2019-05-22T20:33:39.985Z,9.47
2019-05-22T20:36:08.709Z,9.40
2019-05-22T20:38:37.191Z,9.67
2019-05-22T20:41:05.258Z,9.27
2019-05-22T20:43:33.648Z,9.03
2019-05-22T20:46:01.986Z,8.80
2019-05-22T20:48:30.534Z,9.83
2019-05-22T20:50:59.721Z,8.73
2019-05-22T20:53:28.670Z,9.60
2019-05-22T20:55:56.712Z,9.50
2019-05-22T20:58:26.873Z,9.47
2019-05-22T21:00:55.569Z,9.27
2019-05-22T21:03:24.564Z,9.60
2019-05-22T21:05:54.264Z,9.40
2019-05-22T21:08:24.248Z,8.83
2019-05-22T21:10:52.444Z,9.17
2019-05-22T21:13:20.538Z,8.67
2019-05-22T21:15:49.818Z,9.10
2019-05-22T21:18:20.085Z,8.90
2019-05-22T21:20:54.865Z,9.60
2019-05-22T21:23:19.378Z,9.73
2019-05-22T21:25:47.388Z,8.83
2019-05-22T21:28:15.327Z,9.20
2019-05-22T21:30:43.394Z,8.53
2019-05-22T21:33:11.935Z,9.53
2019-05-22T21:35:40.118Z,9.10
2019-05-22T21:38:09.347Z,8.50
2019-05-22T21:40:38.027Z,8.70
2019-05-22T21:43:06.938Z,8.77
2019-05-22T21:45:35.678Z,8.57
2019-05-22T21:48:06.516Z,8.57
2019-05-22T21:50:34.655Z,8.97
2019-05-22T21:53:03.940Z,7.90
2019-05-22T21:55:32.025Z,7.60
2019-05-22T21:58:00.181Z,8.30
2019-05-22T22:00:58.064Z,7.97
2019-05-22T22:03:28.685Z,7.93
2019-05-22T22:05:57.125Z,8.57
2019-05-22T22:08:26.429Z,7.97
2019-05-22T22:10:54.543Z,8.33
2019-05-22T22:13:22.704Z,8.10
2019-05-22T22:15:51.277Z,8.47
2019-05-22T22:18:24.455Z,8.47
2019-05-22T22:20:51.033Z,8.00
2019-05-22T22:23:20.386Z,8.53
2019-05-22T22:25:49.124Z,8.87
2019-05-22T22:28:18.211Z,8.87
2019-05-22T22:30:52.788Z,8.60
2019-05-22T22:33:22.353Z,8.20
2019-05-22T22:35:50.992Z,8.90
2019-05-22T22:38:20.241Z,8.57
2019-05-22T22:40:48.989Z,8.73
2019-05-22T22:43:17.080Z,8.20
2019-05-22T22:45:56.469Z,8.13
2019-05-22T22:48:25.981Z,10.37
2019-05-22T22:50:54.029Z,8.67
2019-05-22T22:53:22.086Z,8.80
2019-05-22T22:55:50.244Z,8.33
2019-05-22T22:58:18.807Z,8.90
2019-05-22T23:00:47.592Z,8.43
2019-05-22T23:03:18.132Z,9.27
2019-05-22T23:05:48.659Z,8.30
2019-05-22T23:08:19.896Z,8.50
2019-05-22T23:10:48.768Z,7.70
2019-05-22T23:13:16.869Z,8.90
2019-05-22T23:15:44.892Z,8.97
2019-05-22T23:18:15.425Z,8.60
2019-05-22T23:20:43.958Z,8.07
2019-05-22T23:23:12.246Z,8.77
2019-05-22T23:25:42.080Z,8.40
2019-05-22T23:28:10.849Z,8.50
2019-05-22T23:30:39.512Z,9.30
2019-05-22T23:33:07.484Z,8.67
2019-05-22T23:35:35.427Z,8.93
2019-05-22T23:38:03.814Z,9.33
2019-05-22T23:40:34.301Z,8.60
2019-05-22T23:43:03.355Z,8.10
2019-05-22T23:45:31.303Z,8.70
2019-05-22T23:48:00.968Z,8.23
2019-05-22T23:50:29.366Z,9.03
2019-05-22T23:52:58.467Z,9.20
2019-05-22T23:55:26.523Z,8.40
2019-05-22T23:57:54.660Z,8.50
